createdAt,value
2022-10-13T00:05:17.695Z,1017
2022-10-13T00:15:17.585Z,1017
2022-10-13T00:25:17.710Z,1017
2022-10-13T00:35:17.770Z,1017
2022-10-13T00:45:17.688Z,1017
2022-10-13T00:55:17.794Z,1017
2022-10-13T01:05:17.684Z,1017
2022-10-13T01:15:17.769Z,1017
2022-10-13T01:25:17.679Z,1017
2022-10-13T01:35:17.756Z,1017
2022-10-13T01:45:17.777Z,1017
2022-10-13T01:55:17.753Z,1017
2022-10-13T02:05:17.882Z,1017
2022-10-13T02:15:17.754Z,1017
2022-10-13T02:25:17.977Z,1017
2022-10-13T02:35:17.761Z,1017
2022-10-13T02:45:17.873Z,1016
2022-10-13T02:55:17.734Z,1016
2022-10-13T03:05:17.864Z,1016
2022-10-13T03:15:17.734Z,1016
2022-10-13T03:25:17.860Z,1016
2022-10-13T03:35:17.937Z,1016
2022-10-13T03:45:17.876Z,1016
2022-10-13T03:55:17.948Z,1016
2022-10-13T04:05:17.853Z,1016
2022-10-13T04:15:17.931Z,1016
2022-10-13T04:25:17.859Z,1016
2022-10-13T04:35:17.936Z,1016
2022-10-13T04:45:17.909Z,1016
2022-10-13T04:55:17.930Z,1016
2022-10-13T05:05:18.045Z,1016
2022-10-13T05:15:17.934Z,1016
2022-10-13T05:25:18.090Z,1016
2022-10-13T05:35:17.920Z,1016
2022-10-13T05:45:18.045Z,1016
2022-10-13T05:55:17.909Z,1016
2022-10-13T06:05:18.032Z,1016
2022-10-13T06:15:18.113Z,1016
2022-10-13T06:25:18.030Z,1015
2022-10-13T06:35:18.110Z,1015
2022-10-13T06:45:18.033Z,1015
2022-10-13T06:55:18.106Z,1015
2022-10-13T07:05:18.098Z,1015
2022-10-13T07:15:18.109Z,1015
2022-10-13T07:25:18.007Z,1015
2022-10-13T07:35:18.078Z,1015
2022-10-13T07:45:18.207Z,1015
2022-10-13T07:55:18.090Z,1015
2022-10-13T08:05:18.211Z,1015
2022-10-13T08:15:18.085Z,1015
2022-10-13T08:25:18.209Z,1015
2022-10-13T08:35:18.059Z,1015
2022-10-13T08:55:18.083Z,1015
2022-10-13T09:05:18.192Z,1015
2022-10-13T09:15:18.285Z,1016
2022-10-13T09:25:18.209Z,1016
2022-10-13T09:35:18.282Z,1016
2022-10-13T09:45:18.195Z,1016
2022-10-13T09:55:18.339Z,1016
2022-10-13T10:05:18.190Z,1016
2022-10-13T10:15:18.260Z,1016
2022-10-13T10:25:18.187Z,1016
2022-10-13T10:35:18.287Z,1016
2022-10-13T10:45:18.403Z,1016
2022-10-13T10:55:18.289Z,1016
2022-10-13T11:05:18.398Z,1016
2022-10-13T11:15:18.256Z,1016
2022-10-13T11:25:18.423Z,1017
2022-10-13T11:35:18.295Z,1017
2022-10-13T11:45:18.446Z,1017
2022-10-13T11:55:18.321Z,1017
2022-10-13T12:05:18.469Z,1018
2022-10-13T12:15:18.322Z,1018
2022-10-13T12:25:18.442Z,1018
2022-10-13T12:35:18.319Z,1018
2022-10-13T12:45:18.461Z,1019
2022-10-13T12:55:18.387Z,1019
2022-10-13T13:05:18.541Z,1019
2022-10-13T13:15:18.434Z,1019
2022-10-13T13:25:18.554Z,1019
2022-10-13T13:35:18.425Z,1019
2022-10-13T13:45:18.553Z,1019
2022-10-13T13:55:18.411Z,1019
2022-10-13T14:05:18.607Z,1018
2022-10-13T14:15:18.443Z,1017
2022-10-13T14:25:18.473Z,1017
2022-10-13T14:35:18.533Z,1017
2022-10-13T14:45:18.469Z,1017
2022-10-13T14:55:18.548Z,1016
2022-10-13T15:05:18.536Z,1016
2022-10-13T15:15:18.571Z,1015
2022-10-13T15:25:18.486Z,1015
2022-10-13T15:35:18.564Z,1015
2022-10-13T15:45:18.805Z,1015
2022-10-13T15:55:18.689Z,1015
2022-10-13T16:05:18.858Z,1015
2022-10-13T16:15:18.629Z,1014
2022-10-13T16:25:18.892Z,1014
2022-10-13T16:35:18.674Z,1014
2022-10-13T16:45:21.502Z,1014
2022-10-13T16:55:18.687Z,1014
2022-10-13T17:05:18.606Z,1014
2022-10-13T17:15:18.683Z,1014
2022-10-13T17:25:18.602Z,1014
2022-10-13T17:35:18.673Z,1014
2022-10-13T17:45:18.806Z,1014
2022-10-13T17:55:18.690Z,1014
2022-10-13T18:05:18.861Z,1013
2022-10-13T18:15:18.804Z,1013
2022-10-13T18:25:18.845Z,1013
2022-10-13T18:35:18.790Z,1013
2022-10-13T18:45:18.931Z,1013
2022-10-13T18:55:18.807Z,1013
2022-10-13T19:05:18.871Z,1013
2022-10-13T19:15:18.857Z,1013
2022-10-13T19:25:18.798Z,1013
2022-10-13T19:35:18.860Z,1013
2022-10-13T19:45:18.994Z,1013
2022-10-13T19:55:18.831Z,1013
2022-10-13T20:05:22.043Z,1013
2022-10-13T20:15:18.802Z,1013
2022-10-13T20:25:18.933Z,1013
2022-10-13T20:35:18.860Z,1013
2022-10-13T20:45:18.986Z,1013
2022-10-13T20:55:18.875Z,1013
2022-10-13T21:05:18.974Z,1013
2022-10-13T21:15:18.871Z,1013
2022-10-13T21:25:18.978Z,1013
2022-10-13T21:35:18.859Z,1013
2022-10-13T21:45:18.972Z,1012
2022-10-13T21:55:19.050Z,1012
2022-10-13T22:05:18.997Z,1012
2022-10-13T22:15:19.103Z,1012
2022-10-13T22:25:18.957Z,1012
2022-10-13T22:35:19.055Z,1011
2022-10-13T22:45:19.027Z,1011
2022-10-13T22:55:19.101Z,1011
2022-10-13T23:05:19.194Z,1011
2022-10-13T23:45:19.125Z,1011
2022-10-13T23:55:18.975Z,1011
